Time;durP1;ratioP1;P1;durP2;ratioP2;P2;SDS_P1;SDS_P2;PMS_P1;PMS_P2;Temp;Humidity;BMP_temperature;BMP_pressure;BME280_temperature;BME280_humidity;BME280_pressure;Samples;Min_cycle;Max_cycle;Signal;HPM_P1;HPM_P2
2020/12/11 00:00:19;;;;;;;38.75;18.50;;;;;;;1.03;99.88;99791.81;4982948;28;20031;-69
2020/12/11 00:02:44;;;;;;;38.95;18.60;;;;;;;1.10;99.48;99780.06;4982314;28;20041;-69
2020/12/11 00:05:10;;;;;;;34.10;18.50;;;;;;;1.19;99.42;99776.19;4980244;28;20429;-69
2020/12/11 00:07:36;;;;;;;37.28;18.80;;;;;;;1.14;99.46;99768.44;4982614;28;20045;-69
2020/12/11 00:10:13;;;;;;;38.33;18.95;;;;;;;1.20;99.38;99748.81;4983462;28;20030;-69
2020/12/11 00:12:39;;;;;;;39.90;19.13;;;;;;;1.23;99.42;99740.78;4981717;28;20417;-69
2020/12/11 00:15:06;;;;;;;37.90;18.50;;;;;;;1.17;99.19;99735.75;4976483;28;20041;-69
2020/12/11 00:17:31;;;;;;;36.88;18.10;;;;;;;1.17;99.61;99735.75;4968643;28;20041;-69
2020/12/11 00:19:57;;;;;;;39.90;19.20;;;;;;;1.17;99.77;99738.41;4983388;28;20374;-69
2020/12/11 00:22:23;;;;;;;35.97;18.52;;;;;;;1.19;99.59;99728.59;4980671;28;20042;-69
2020/12/11 00:24:49;;;;;;;35.22;17.13;;;;;;;1.21;99.53;99717.06;4983749;28;20117;-69
2020/12/11 00:27:15;;;;;;;36.65;18.17;;;;;;;1.23;99.29;99714.34;4985024;28;20062;-69
2020/12/11 00:29:40;;;;;;;38.03;17.95;;;;;;;1.20;99.03;99699.47;4979817;28;20472;-69
2020/12/11 00:32:06;;;;;;;37.97;18.02;;;;;;;1.27;98.96;99700.06;4979698;28;20046;-69
2020/12/11 00:34:32;;;;;;;32.65;16.73;;;;;;;1.24;98.74;99694.91;4986494;28;20485;-69
2020/12/11 00:36:58;;;;;;;37.13;18.15;;;;;;;1.25;99.01;99691.34;4981468;28;20052;-69
2020/12/11 00:39:23;;;;;;;35.42;16.90;;;;;;;1.24;99.02;99679.03;4982734;28;20044;-69
2020/12/11 00:41:49;;;;;;;39.50;18.65;;;;;;;1.26;98.73;99669.28;4977429;28;20042;-69
2020/12/11 00:44:15;;;;;;;31.35;16.10;;;;;;;1.29;98.77;99666.53;4975841;28;20384;-69
2020/12/11 00:46:40;;;;;;;33.78;16.20;;;;;;;1.28;98.74;99670.09;4980723;28;20550;-69
2020/12/11 00:49:06;;;;;;;39.22;18.17;;;;;;;1.30;98.21;99660.28;4979168;28;20085;-69
2020/12/11 00:51:31;;;;;;;33.92;17.42;;;;;;;1.31;98.63;99659.34;4983213;28;20429;-70
2020/12/11 00:53:58;;;;;;;29.17;15.60;;;;;;;1.34;97.88;99658.38;4978332;28;20062;-69
2020/12/11 00:56:23;;;;;;;27.67;15.32;;;;;;;1.36;98.11;99662.66;4978468;28;20072;-69
2020/12/11 00:58:49;;;;;;;31.77;15.23;;;;;;;1.40;97.60;99658.09;4988407;28;20129;-69
2020/12/11 01:01:15;;;;;;;30.15;14.85;;;;;;;1.39;97.64;99659.03;4980768;28;20045;-69
2020/12/11 01:03:41;;;;;;;33.20;15.20;;;;;;;1.37;97.77;99659.09;4979433;28;20034;-69
2020/12/11 01:06:06;;;;;;;30.58;14.68;;;;;;;1.38;97.41;99644.94;4976990;28;20458;-69
2020/12/11 01:08:32;;;;;;;31.42;15.57;;;;;;;1.38;97.20;99650.25;4982698;28;20042;-69
2020/12/11 01:10:57;;;;;;;29.38;14.55;;;;;;;1.36;97.51;99652.09;4983551;28;20649;-69
2020/12/11 01:13:23;;;;;;;29.30;15.55;;;;;;;1.46;96.85;99652.56;4984514;28;20044;-69
2020/12/11 01:15:48;;;;;;;31.35;15.15;;;;;;;1.36;97.06;99649.44;4982316;28;20308;-69
2020/12/11 01:18:13;;;;;;;30.02;15.57;;;;;;;1.44;96.70;99655.25;4981806;28;20113;-69
2020/12/11 01:20:39;;;;;;;28.77;13.77;;;;;;;1.50;96.43;99644.41;4978878;28;20073;-69
2020/12/11 01:23:04;;;;;;;29.40;14.02;;;;;;;1.47;96.36;99649.84;4985270;28;20457;-69
2020/12/11 01:25:30;;;;;;;25.08;13.98;;;;;;;1.55;96.18;99637.13;4987656;28;20109;-69
2020/12/11 01:27:55;;;;;;;26.33;13.60;;;;;;;1.53;95.98;99644.28;4984645;28;20041;-69
2020/12/11 01:30:21;;;;;;;26.15;14.10;;;;;;;1.53;96.18;99639.00;4985230;28;20027;-70
2020/12/11 01:32:46;;;;;;;28.35;15.48;;;;;;;1.43;96.61;99627.09;4983931;28;20066;-70
2020/12/11 01:35:11;;;;;;;27.58;14.70;;;;;;;1.45;96.77;99624.38;4984416;28;20030;-69
2020/12/11 01:37:37;;;;;;;25.92;13.93;;;;;;;1.49;96.48;99626.81;4986525;28;20037;-69
2020/12/11 01:40:04;;;;;;;27.88;15.45;;;;;;;1.51;96.44;99622.34;4984916;28;20072;-70
2020/12/11 01:42:29;;;;;;;29.98;14.82;;;;;;;1.51;95.70;99602.97;4977851;28;20065;-69
2020/12/11 01:44:54;;;;;;;29.70;15.27;;;;;;;1.48;96.37;99603.94;4986587;28;20493;-69
2020/12/11 01:47:21;;;;;;;27.02;16.10;;;;;;;1.56;95.88;99599.19;4985482;28;20114;-69
2020/12/11 01:49:48;;;;;;;34.85;15.48;;;;;;;1.50;95.90;99599.47;4986927;28;20451;-69
2020/12/11 01:52:14;;;;;;;30.42;16.40;;;;;;;1.50;96.17;99596.81;4965809;28;20536;-69
2020/12/11 01:54:40;;;;;;;30.20;16.17;;;;;;;1.51;96.36;99592.38;4987565;28;20073;-69
2020/12/11 01:57:07;;;;;;;29.98;16.33;;;;;;;1.52;97.07;99584.38;4984810;28;20121;-69
2020/12/11 01:59:41;;;;;;;32.33;17.90;;;;;;;1.56;96.85;99580.66;4991717;28;20034;-69
2020/12/11 02:02:12;;;;;;;32.35;17.15;;;;;;;1.54;96.47;99571.94;4983689;28;20042;-69
2020/12/11 02:04:38;;;;;;;36.28;17.75;;;;;;;1.61;96.74;99562.78;4983397;28;20099;-69
2020/12/11 02:07:05;;;;;;;32.70;17.52;;;;;;;1.53;97.23;99554.38;4984066;28;20492;-69
2020/12/11 02:09:35;;;;;;;38.50;17.63;;;;;;;1.56;97.31;99554.22;4988488;28;20034;-69
2020/12/11 02:12:04;;;;;;;40.28;19.02;;;;;;;1.56;97.60;99542.78;4981810;28;20046;-69
2020/12/11 02:14:30;;;;;;;38.50;20.10;;;;;;;1.51;97.68;99543.00;4972885;28;20026;-69
2020/12/11 02:16:59;;;;;;;42.45;20.08;;;;;;;1.52;97.69;99541.22;4983657;28;20409;-69
2020/12/11 02:19:29;;;;;;;37.03;19.85;;;;;;;1.52;97.97;99530.66;4980195;28;20026;-69
2020/12/11 02:22:03;;;;;;;42.90;21.73;;;;;;;1.44;98.60;99512.50;4985330;28;20038;-69
2020/12/11 02:24:29;;;;;;;45.35;21.83;;;;;;;1.46;98.72;99515.94;4986992;28;20386;-69
2020/12/11 02:26:59;;;;;;;47.38;22.67;;;;;;;1.47;98.70;99511.50;4987369;28;20065;-69
2020/12/11 02:29:25;;;;;;;43.38;22.40;;;;;;;1.43;98.88;99508.13;4981719;28;20052;-69
2020/12/11 02:31:51;;;;;;;46.38;22.27;;;;;;;1.47;98.64;99501.78;4984577;28;20761;-69
2020/12/11 02:34:18;;;;;;;45.03;22.92;;;;;;;1.38;99.18;99486.34;4979389;28;20058;-69
2020/12/11 02:36:43;;;;;;;44.83;22.83;;;;;;;1.50;99.08;99485.75;4986084;28;20066;-69
2020/12/11 02:39:09;;;;;;;44.53;22.17;;;;;;;1.42;99.39;99487.91;4980567;28;20669;-69
2020/12/11 02:41:34;;;;;;;46.35;22.58;;;;;;;1.34;99.26;99487.41;4980953;28;20033;-69
2020/12/11 02:44:01;;;;;;;44.53;20.42;;;;;;;1.43;99.28;99478.19;4972104;28;20573;-69
2020/12/11 02:46:27;;;;;;;43.90;22.02;;;;;;;1.40;99.00;99484.50;4982218;28;20116;-69
2020/12/11 02:48:53;;;;;;;38.75;19.27;;;;;;;1.40;98.97;99489.78;4986857;28;20384;-69
2020/12/11 02:51:18;;;;;;;38.83;19.60;;;;;;;1.36;98.92;99485.53;4975495;28;20034;-69
2020/12/11 02:53:44;;;;;;;40.20;20.27;;;;;;;1.36;99.08;99480.25;4979093;28;20409;-70
2020/12/11 02:56:09;;;;;;;36.75;19.45;;;;;;;1.42;98.89;99479.97;4984640;28;20040;-69
2020/12/11 02:58:35;;;;;;;40.30;20.85;;;;;;;1.32;98.83;99483.97;4978566;28;20049;-70
2020/12/11 03:01:00;;;;;;;37.38;19.48;;;;;;;1.29;98.84;99476.22;4979613;28;20042;-69
2020/12/11 03:03:26;;;;;;;40.38;20.30;;;;;;;1.41;98.49;99480.91;4977823;28;20301;-69
2020/12/11 03:05:52;;;;;;;40.88;20.38;;;;;;;1.36;98.32;99472.31;4979705;28;20106;-69
2020/12/11 03:08:17;;;;;;;42.45;20.50;;;;;;;1.30;98.63;99477.91;4987381;28;20101;-69
2020/12/11 03:10:43;;;;;;;40.45;18.42;;;;;;;1.37;98.43;99475.81;4978382;28;20047;-69
2020/12/11 03:13:08;;;;;;;36.95;20.85;;;;;;;1.33;98.46;99483.06;4986014;28;20436;-69
2020/12/11 03:15:34;;;;;;;41.65;20.27;;;;;;;1.33;98.44;99476.91;4979851;28;20030;-69
2020/12/11 03:17:59;;;;;;;38.67;20.52;;;;;;;1.29;98.63;99464.78;4986687;28;20062;-69
2020/12/11 03:20:24;;;;;;;42.10;20.88;;;;;;;1.31;99.09;99466.41;4985663;28;20046;-69
2020/12/11 03:22:56;;;;;;;41.80;19.90;;;;;;;1.29;99.19;99455.06;4984155;28;20175;-69
2020/12/11 03:25:21;;;;;;;35.22;19.02;;;;;;;1.31;99.27;99445.25;4983000;28;20485;-69
2020/12/11 03:27:47;;;;;;;37.17;20.20;;;;;;;1.40;98.38;99434.25;4981656;28;20038;-70
2020/12/11 03:30:12;;;;;;;39.60;20.35;;;;;;;1.38;98.20;99432.59;4981858;28;20480;-69
2020/12/11 03:32:38;;;;;;;40.78;21.55;;;;;;;1.42;98.20;99440.31;4980701;28;20049;-69
2020/12/11 03:35:05;;;;;;;37.90;19.80;;;;;;;1.36;98.57;99431.84;4980221;28;20053;-69
2020/12/11 03:37:31;;;;;;;44.25;21.58;;;;;;;1.45;98.45;99440.19;4982483;28;20044;-69
2020/12/11 03:39:56;;;;;;;45.20;21.23;;;;;;;1.45;98.59;99440.19;4984584;28;20034;-69
2020/12/11 03:42:21;;;;;;;40.75;20.80;;;;;;;1.47;98.23;99438.34;4986570;28;20401;-69
2020/12/11 03:44:47;;;;;;;40.45;19.70;;;;;;;1.51;98.00;99428.44;4981997;28;20042;-69
2020/12/11 03:47:12;;;;;;;36.22;18.80;;;;;;;1.48;98.26;99429.44;4983366;28;20034;-69
2020/12/11 03:49:37;;;;;;;36.33;18.80;;;;;;;1.45;98.42;99429.59;4980623;28;20498;-69
2020/12/11 03:52:03;;;;;;;35.25;19.55;;;;;;;1.51;98.08;99434.59;4980256;28;20034;-69
2020/12/11 03:54:28;;;;;;;39.22;19.90;;;;;;;1.53;98.19;99426.59;4978710;28;20090;-69
2020/12/11 03:56:54;;;;;;;35.78;18.08;;;;;;;1.51;97.61;99424.03;5001087;28;20046;-69
2020/12/11 03:59:19;;;;;;;39.97;19.35;;;;;;;1.54;97.71;99423.84;4984987;28;20046;-69
2020/12/11 04:01:44;;;;;;;38.75;19.02;;;;;;;1.49;98.03;99417.94;4978056;28;20034;-69
2020/12/11 04:04:10;;;;;;;40.10;19.88;;;;;;;1.47;98.19;99416.31;4966722;28;20034;-69
2020/12/11 04:06:36;;;;;;;34.72;17.70;;;;;;;1.56;97.90;99413.22;4978590;28;20761;-69
2020/12/11 04:09:01;;;;;;;36.70;18.40;;;;;;;1.55;97.64;99408.84;4976573;28;20106;-69
2020/12/11 04:11:27;;;;;;;39.38;20.00;;;;;;;1.53;97.78;99406.31;4983655;28;20496;-69
2020/12/11 04:13:52;;;;;;;34.40;17.17;;;;;;;1.56;97.75;99408.78;4984685;28;20042;-69
2020/12/11 04:16:18;;;;;;;35.42;18.63;;;;;;;1.47;97.86;99409.25;4978660;28;20041;-70
2020/12/11 04:18:43;;;;;;;35.72;18.10;;;;;;;1.52;98.07;99409.88;4981225;28;20038;-69
2020/12/11 04:21:16;;;;;;;34.45;17.02;;;;;;;1.51;97.74;99407.31;4984472;28;20390;-69
2020/12/11 04:23:42;;;;;;;37.45;18.83;;;;;;;1.50;97.66;99411.72;4982521;28;20034;-69
2020/12/11 04:26:08;;;;;;;36.90;18.13;;;;;;;1.54;97.49;99397.41;4984694;28;20128;-69
2020/12/11 04:28:34;;;;;;;39.40;19.75;;;;;;;1.43;98.14;99383.88;4980229;28;20678;-69
2020/12/11 04:31:00;;;;;;;39.22;19.45;;;;;;;1.48;97.93;99383.66;4985813;28;20060;-69
2020/12/11 04:33:26;;;;;;;36.35;19.10;;;;;;;1.36;98.52;99382.44;4981885;28;20034;-69
2020/12/11 04:35:52;;;;;;;41.83;20.52;;;;;;;1.49;98.03;99375.63;4997420;28;20484;-69
2020/12/11 04:38:17;;;;;;;37.17;18.85;;;;;;;1.45;98.37;99374.09;4985765;28;20046;-69
2020/12/11 04:40:44;;;;;;;36.60;18.65;;;;;;;1.44;97.88;99363.56;4984243;28;20034;-69
2020/12/11 04:43:10;;;;;;;36.13;18.15;;;;;;;1.42;98.30;99368.09;4984013;28;20026;-69
2020/12/11 04:45:38;;;;;;;37.55;18.58;;;;;;;1.39;98.28;99358.53;4966204;28;20033;-69
2020/12/11 04:48:04;;;;;;;37.55;19.30;;;;;;;1.38;98.31;99340.94;4984326;28;20041;-69
2020/12/11 04:50:30;;;;;;;34.30;18.67;;;;;;;1.39;98.36;99334.72;4984967;28;20408;-69
2020/12/11 04:52:58;;;;;;;36.78;19.48;;;;;;;1.42;98.32;99331.91;4977412;28;20444;-69
2020/12/11 04:55:23;;;;;;;36.67;19.25;;;;;;;1.35;98.28;99322.59;4978062;28;20596;-69
2020/12/11 04:57:50;;;;;;;44.00;20.85;;;;;;;1.31;98.65;99318.38;4986617;28;20043;-69
2020/12/11 05:00:17;;;;;;;38.08;19.30;;;;;;;1.28;98.92;99310.63;4980921;28;20045;-69
2020/12/11 05:02:45;;;;;;;35.45;18.23;;;;;;;1.34;98.65;99302.38;4988419;28;20536;-69
2020/12/11 05:05:13;;;;;;;37.60;18.92;;;;;;;1.35;98.67;99300.59;4987975;28;20033;-69
2020/12/11 05:07:39;;;;;;;43.30;20.15;;;;;;;1.30;98.60;99297.34;4986338;28;20121;-69
2020/12/11 05:10:09;;;;;;;42.20;21.13;;;;;;;1.38;98.22;99288.06;4975914;28;20128;-69
2020/12/11 05:12:35;;;;;;;35.72;20.40;;;;;;;1.35;98.50;99275.03;4984180;28;20035;-69
2020/12/11 05:15:05;;;;;;;37.47;19.40;;;;;;;1.32;98.11;99269.03;4983156;28;20058;-69
2020/12/11 05:17:32;;;;;;;40.55;19.55;;;;;;;1.29;98.30;99248.03;4988786;28;20054;-69
2020/12/11 05:19:58;;;;;;;41.17;18.83;;;;;;;1.29;98.19;99248.91;4982429;28;20062;-69
2020/12/11 05:22:29;;;;;;;38.13;19.48;;;;;;;1.23;98.27;99248.34;4982531;28;20109;-69
2020/12/11 05:24:58;;;;;;;38.42;18.23;;;;;;;1.21;98.74;99235.22;4985532;28;20440;-69
2020/12/11 05:27:35;;;;;;;33.92;18.45;;;;;;;1.26;98.39;99233.19;4984872;28;20527;-69
2020/12/11 05:30:07;;;;;;;37.13;18.05;;;;;;;1.27;98.36;99224.34;4982793;28;20038;-69
2020/12/11 05:32:41;;;;;;;36.42;18.80;;;;;;;1.28;98.12;99210.19;4987886;28;20038;-69
2020/12/11 05:35:20;;;;;;;38.22;18.40;;;;;;;1.30;98.21;99208.31;4984957;28;20070;-70
2020/12/11 05:37:47;;;;;;;36.17;18.63;;;;;;;1.29;98.32;99201.34;4988478;28;20085;-69
2020/12/11 05:40:21;;;;;;;34.60;18.38;;;;;;;1.27;98.22;99202.34;4987537;28;20312;-69
2020/12/11 05:43:32;;;;;;;33.78;17.65;;;;;;;1.31;98.15;99185.38;4985945;28;20553;-69
2020/12/11 05:45:59;;;;;;;37.08;18.30;;;;;;;1.32;98.28;99184.44;4979330;28;20193;-69
2020/12/11 05:48:25;;;;;;;38.13;17.48;;;;;;;1.36;97.91;99163.06;4981818;28;20035;-69
2020/12/11 05:50:51;;;;;;;39.33;20.00;;;;;;;1.34;98.11;99170.22;4984217;28;20042;-69
2020/12/11 05:53:17;;;;;;;37.33;18.63;;;;;;;1.34;97.98;99157.00;4984224;28;20049;-69
2020/12/11 05:55:42;;;;;;;30.30;16.38;;;;;;;1.43;97.58;99155.66;4982247;28;20042;-69
2020/12/11 05:58:10;;;;;;;34.28;17.30;;;;;;;1.42;97.69;99149.53;4986850;28;20045;-69
2020/12/11 06:00:39;;;;;;;37.13;17.08;;;;;;;1.36;97.60;99144.56;4989042;28;20026;-69
2020/12/11 06:03:05;;;;;;;32.78;18.13;;;;;;;1.37;97.77;99135.69;4984426;28;20477;-69
2020/12/11 06:05:39;;;;;;;34.55;17.67;;;;;;;1.40;97.57;99129.41;4988832;28;20066;-69
2020/12/11 06:08:10;;;;;;;36.10;17.95;;;;;;;1.35;97.48;99134.94;4983948;28;20042;-69
2020/12/11 06:10:38;;;;;;;32.30;16.88;;;;;;;1.33;97.53;99122.72;4979927;28;20818;-69
2020/12/11 06:13:04;;;;;;;32.38;17.38;;;;;;;1.36;97.52;99128.69;4982887;28;20042;-69
2020/12/11 06:15:36;;;;;;;37.67;19.65;;;;;;;1.36;97.55;99128.69;4983142;28;20214;-69
2020/12/11 06:18:15;;;;;;;39.67;19.35;;;;;;;1.36;97.63;99128.69;4981894;28;20053;-69
2020/12/11 06:20:42;;;;;;;34.80;17.63;;;;;;;1.42;97.48;99132.84;4983089;28;20030;-69
2020/12/11 06:23:28;;;;;;;38.90;19.17;;;;;;;1.40;97.54;99130.25;4985171;28;20037;-69
2020/12/11 06:25:55;;;;;;;38.65;19.58;;;;;;;1.42;97.88;99122.25;4980254;28;20569;-69
2020/12/11 06:28:36;;;;;;;42.30;20.30;;;;;;;1.36;97.81;99123.41;4982377;28;20041;-69
2020/12/11 06:31:07;;;;;;;42.40;19.63;;;;;;;1.42;97.63;99112.50;4976408;28;20042;-69
2020/12/11 06:33:34;;;;;;;40.53;19.70;;;;;;;1.39;97.53;99111.84;4988008;28;20030;-69
2020/12/11 06:36:01;;;;;;;38.85;19.70;;;;;;;1.37;97.44;99103.97;4984459;28;20582;-69
2020/12/11 06:38:47;;;;;;;43.45;21.52;;;;;;;1.44;97.54;99099.22;4985271;28;20038;-69
2020/12/11 06:41:33;;;;;;;42.53;19.67;;;;;;;1.36;98.05;99101.44;4983182;28;20027;-69
2020/12/11 06:44:14;;;;;;;39.88;19.23;;;;;;;1.43;97.68;99105.44;4985838;28;20065;-69
2020/12/11 06:46:39;;;;;;;37.00;17.80;;;;;;;1.47;97.18;99099.94;4975044;28;20038;-69
2020/12/11 06:49:19;;;;;;;38.50;19.35;;;;;;;1.50;97.40;99104.19;4976752;28;20053;-69
2020/12/11 06:51:45;;;;;;;35.78;18.58;;;;;;;1.36;98.12;99106.72;4965240;28;20030;-69
2020/12/11 06:54:16;;;;;;;34.97;18.80;;;;;;;1.52;97.05;99113.75;4980095;28;20044;-69
2020/12/11 06:56:43;;;;;;;41.00;20.92;;;;;;;1.50;97.25;99099.75;4982062;28;20038;-71
2020/12/11 06:59:25;;;;;;;38.38;19.15;;;;;;;1.50;96.80;99093.59;4978820;28;20084;-69
2020/12/11 07:01:54;;;;;;;37.78;18.48;;;;;;;1.53;96.29;99083.75;4982716;28;20034;-69
2020/12/11 07:04:21;;;;;;;35.53;18.60;;;;;;;1.57;96.43;99090.56;4982011;28;20553;-69
2020/12/11 07:06:50;;;;;;;40.47;19.15;;;;;;;1.54;96.32;99080.13;4983697;28;20110;-69
2020/12/11 07:09:17;;;;;;;37.60;19.70;;;;;;;1.55;96.56;99065.97;4973170;28;20031;-68
2020/12/11 07:11:43;;;;;;;41.33;19.65;;;;;;;1.57;96.66;99074.69;4984981;28;20046;-69
2020/12/11 07:14:09;;;;;;;36.42;18.65;;;;;;;1.56;96.73;99072.13;4987150;28;20056;-69
2020/12/11 07:16:39;;;;;;;34.85;18.88;;;;;;;1.58;96.79;99076.41;4979217;28;20038;-69
2020/12/11 07:19:05;;;;;;;38.17;20.33;;;;;;;1.55;96.87;99065.97;4980673;28;20030;-69
2020/12/11 07:21:36;;;;;;;35.47;19.38;;;;;;;1.61;96.88;99060.38;4982535;28;20045;-69
2020/12/11 07:24:03;;;;;;;36.65;19.15;;;;;;;1.66;96.64;99061.94;4981854;28;20080;-69
2020/12/11 07:26:29;;;;;;;39.60;19.17;;;;;;;1.72;96.49;99069.53;4981520;28;20034;-69
2020/12/11 07:29:05;;;;;;;32.58;19.20;;;;;;;1.64;96.54;99059.34;4964996;28;579914;-69
2020/12/11 07:31:44;;;;;;;34.88;18.85;;;;;;;1.74;96.06;99065.84;4982505;28;20038;-69
2020/12/11 07:34:16;;;;;;;35.85;18.40;;;;;;;1.78;96.06;99066.53;4985370;28;20026;-69
2020/12/11 07:36:56;;;;;;;35.45;18.65;;;;;;;1.73;96.41;99065.94;4981720;28;20169;-69
2020/12/11 07:39:29;;;;;;;34.60;19.60;;;;;;;1.70;96.25;99064.31;4976191;28;20034;-69
2020/12/11 07:41:56;;;;;;;36.60;17.77;;;;;;;1.77;95.81;99064.81;4982808;28;20370;-69
2020/12/11 07:44:29;;;;;;;32.47;17.45;;;;;;;1.79;95.87;99063.78;4975316;28;20038;-69
2020/12/11 07:46:55;;;;;;;;;;;;;;;1.80;95.80;99060.22;4984085;28;20092;-69
2020/12/11 07:49:21;;;;;;;33.95;17.35;;;;;;;1.85;95.72;99052.03;4993958;28;20372;-69
2020/12/11 07:51:48;;;;;;;34.03;17.30;;;;;;;1.92;95.47;99066.63;4981759;28;20030;-68
2020/12/11 07:54:14;;;;;;;34.83;17.83;;;;;;;1.89;95.82;99061.50;4984362;28;20122;-69
2020/12/11 07:56:40;;;;;;;35.33;18.33;;;;;;;1.93;95.30;99055.09;4996701;28;20436;-69
2020/12/11 07:59:15;;;;;;;36.47;18.33;;;;;;;1.93;95.18;99055.09;4983009;28;20038;-69
2020/12/11 08:01:46;;;;;;;38.97;17.42;;;;;;;1.98;94.94;99063.63;4983000;28;20038;-69
2020/12/11 08:04:16;;;;;;;35.33;16.85;;;;;;;1.98;95.14;99069.78;4982993;28;20038;-69
2020/12/11 08:06:56;;;;;;;34.03;17.63;;;;;;;2.05;94.96;99054.41;4980893;28;20048;-69
2020/12/11 08:09:21;;;;;;;35.75;17.10;;;;;;;2.07;95.00;99062.28;4978281;28;20042;-69
2020/12/11 08:11:47;;;;;;;29.95;17.00;;;;;;;2.10;94.91;99062.13;4980894;28;20037;-69
2020/12/11 08:14:12;;;;;;;35.33;18.33;;;;;;;2.01;95.38;99059.03;4975507;28;20827;-69
2020/12/11 08:16:38;;;;;;;35.08;17.63;;;;;;;2.15;94.80;99068.84;4978227;28;20038;-69
2020/12/11 08:19:09;;;;;;;36.22;17.63;;;;;;;2.17;95.06;99056.38;4971608;28;20486;-69
2020/12/11 08:21:34;;;;;;;33.05;18.27;;;;;;;2.21;94.85;99051.78;4979342;28;20448;-69
2020/12/11 08:23:59;;;;;;;34.88;17.88;;;;;;;2.26;94.78;99057.66;4977722;28;20034;-69
2020/12/11 08:26:45;;;;;;;28.92;16.42;;;;;;;2.22;94.87;99041.06;4984741;28;20493;-70
2020/12/11 08:29:10;;;;;;;35.78;18.55;;;;;;;2.31;94.11;99043.22;4980152;28;20049;-69
2020/12/11 08:31:42;;;;;;;31.08;17.20;;;;;;;2.37;94.37;99034.06;4987015;28;20117;-70
2020/12/11 08:34:12;;;;;;;45.63;20.77;;;;;;;2.31;94.58;99029.97;4984421;28;20053;-69
2020/12/11 08:36:45;;;;;;;58.42;24.13;;;;;;;2.37;94.55;99020.81;4984343;28;20030;-70
2020/12/11 08:39:12;;;;;;;36.45;18.05;;;;;;;2.40;94.53;99013.56;4987338;28;20034;-70
2020/12/11 08:41:44;;;;;;;31.10;17.73;;;;;;;2.32;95.03;99026.38;4988502;28;20038;-69
2020/12/11 08:44:27;;;;;;;37.03;18.63;;;;;;;2.42;94.94;99019.59;4985632;28;20272;-69
2020/12/11 08:49:28;;;;;;;35.63;17.60;;;;;;;2.47;94.44;99016.69;4989259;28;20682;-69
2020/12/11 08:51:54;;;;;;;33.72;17.55;;;;;;;2.48;94.38;99015.75;4987196;28;20421;-71
2020/12/11 08:54:27;;;;;;;34.22;16.80;;;;;;;2.59;94.09;99028.38;4986101;28;20035;-69
2020/12/11 08:56:52;;;;;;;;;;;;;;;2.57;94.24;99020.53;4987283;28;20073;-69
2020/12/11 08:59:17;;;;;;;32.03;16.45;;;;;;;2.53;94.58;99012.84;4981653;28;19968;-69
2020/12/11 09:01:43;;;;;;;32.25;17.27;;;;;;;2.61;94.51;99015.88;4987362;28;20061;-69
2020/12/11 09:04:08;;;;;;;34.13;17.05;;;;;;;2.67;94.43;99010.22;4984828;28;20512;-70
2020/12/11 09:06:33;;;;;;;31.45;16.45;;;;;;;2.65;94.25;99012.13;4971733;28;20029;-70
2020/12/11 09:08:59;;;;;;;33.55;18.38;;;;;;;2.73;94.36;98988.66;4987661;28;20045;-72
2020/12/11 09:11:24;;;;;;;29.83;15.85;;;;;;;2.70;94.11;99034.75;4988106;28;20342;-70
2020/12/11 09:13:49;;;;;;;35.92;17.63;;;;;;;2.74;93.89;99016.88;4988144;28;20134;-69
2020/12/11 09:16:15;;;;;;;38.38;17.55;;;;;;;2.77;94.05;99006.94;4983360;28;20027;-70
2020/12/11 09:18:40;;;;;;;30.45;17.25;;;;;;;2.81;94.26;99005.81;4985766;28;20481;-69
2020/12/11 09:21:06;;;;;;;31.92;16.70;;;;;;;2.80;94.40;99006.75;4987236;28;20042;-69
2020/12/11 09:23:31;;;;;;;31.67;16.27;;;;;;;2.87;94.64;98996.63;4977542;28;20503;-69
2020/12/11 09:25:57;;;;;;;37.47;16.92;;;;;;;2.81;95.68;98999.66;5002117;28;20101;-70
2020/12/11 09:28:24;;;;;;;32.88;17.42;;;;;;;2.81;96.77;98997.00;4983889;28;20037;-69
2020/12/11 09:30:49;;;;;;;32.65;17.42;;;;;;;2.80;96.72;98995.31;4979963;28;20053;-69
2020/12/11 09:33:21;;;;;;;33.80;17.92;;;;;;;2.88;96.44;99001.00;4981834;28;20026;-69
2020/12/11 09:35:47;;;;;;;32.38;16.92;;;;;;;2.85;97.28;98990.56;4983306;28;20038;-69
2020/12/11 09:38:13;;;;;;;32.67;16.63;;;;;;;2.83;97.45;99003.94;4986648;28;20512;-70
2020/12/11 09:48:51;;;;;;;33.17;17.23;;;;;;;3.12;95.72;98985.41;4972621;28;20835;-69
2020/12/11 09:56:28;;;;;;;30.13;16.05;;;;;;;3.21;94.98;98985.66;4981990;28;20093;-69
2020/12/11 09:59:18;;;;;;;31.67;16.52;;;;;;;3.30;94.61;98975.44;4987763;28;20042;-69
2020/12/11 10:04:23;;;;;;;27.17;15.27;;;;;;;3.32;94.34;98977.06;4990212;28;20037;-69
2020/12/11 10:06:48;;;;;;;28.13;15.45;;;;;;;3.37;94.05;98968.81;4987090;28;20496;-70
2020/12/11 10:09:14;;;;;;;27.20;14.88;;;;;;;3.38;93.79;98963.44;4981994;28;20034;-70
2020/12/11 10:11:39;;;;;;;30.58;15.07;;;;;;;3.42;93.60;98953.47;4985028;28;20477;-69
2020/12/11 10:14:15;;;;;;;30.50;15.07;;;;;;;3.45;93.60;98956.78;4981958;28;20037;-69
2020/12/11 10:16:42;;;;;;;25.27;14.02;;;;;;;3.48;93.19;98947.78;4983566;28;20447;-70
2020/12/11 10:19:07;;;;;;;26.95;14.55;;;;;;;3.47;93.37;98956.66;4983395;28;20034;-69
2020/12/11 10:21:33;;;;;;;28.10;14.80;;;;;;;3.54;93.83;98950.03;4980240;28;20500;-69
2020/12/11 10:23:58;;;;;;;27.13;15.02;;;;;;;3.61;93.49;98948.69;4980333;28;20165;-69
2020/12/11 10:26:24;;;;;;;25.52;15.15;;;;;;;3.59;94.01;98948.78;4987293;28;20101;-69
2020/12/11 10:28:50;;;;;;;30.58;15.52;;;;;;;3.74;93.24;98939.00;4983784;28;20196;-69
2020/12/11 10:31:15;;;;;;;27.55;14.75;;;;;;;3.75;93.46;98937.19;4984063;28;20043;-69
2020/12/11 10:33:41;;;;;;;25.40;14.23;;;;;;;3.80;93.67;98935.09;4985692;28;20030;-69
2020/12/11 10:36:06;;;;;;;24.45;13.70;;;;;;;3.86;93.20;98930.25;4982719;28;20328;-69
2020/12/11 10:38:32;;;;;;;30.52;14.95;;;;;;;3.86;92.94;98935.56;4984177;28;20642;-69
2020/12/11 10:40:57;;;;;;;25.95;14.77;;;;;;;3.93;92.79;98931.53;4986886;28;20436;-69
2020/12/11 10:43:22;;;;;;;24.83;13.93;;;;;;;3.90;92.99;98913.16;4979894;28;20125;-70
2020/12/11 10:45:48;;;;;;;26.90;14.68;;;;;;;3.99;93.16;98915.22;4980295;28;20061;-70
2020/12/11 10:48:13;;;;;;;21.73;12.57;;;;;;;4.06;92.88;98915.66;4987484;28;20045;-71
2020/12/11 10:50:39;;;;;;;26.70;14.38;;;;;;;3.98;93.07;98913.50;4980932;28;20049;-70
2020/12/11 10:53:04;;;;;;;26.05;13.25;;;;;;;4.01;92.73;98918.59;4986365;28;20118;-70
2020/12/11 10:55:29;;;;;;;24.63;13.52;;;;;;;4.05;92.77;98909.50;4985667;28;20034;-69
2020/12/11 10:57:55;;;;;;;24.83;12.75;;;;;;;4.02;93.01;98904.38;4985921;28;20117;-70
2020/12/11 11:00:20;;;;;;;26.25;14.55;;;;;;;4.06;92.94;98889.97;4986828;28;20053;-70
2020/12/11 11:02:46;;;;;;;23.50;12.65;;;;;;;4.06;93.23;98884.66;4982082;28;20160;-69
2020/12/11 11:05:12;;;;;;;23.40;11.73;;;;;;;4.03;93.00;98895.47;4999946;28;20026;-70
2020/12/11 11:07:37;;;;;;;24.50;14.05;;;;;;;4.04;93.22;98883.91;4986242;28;20405;-69
2020/12/11 11:12:33;;;;;;;23.23;12.38;;;;;;;4.10;92.78;98879.13;4983230;28;20038;-69
2020/12/11 11:15:32;;;;;;;23.70;12.20;;;;;;;4.08;92.96;98881.88;4983009;28;20404;-70
2020/12/11 11:18:12;;;;;;;19.08;12.00;;;;;;;4.08;93.50;98874.78;4977784;28;20531;-69
2020/12/11 11:28:33;;;;;;;21.20;11.95;;;;;;;4.16;92.46;98873.41;4987321;28;20069;-68
2020/12/11 11:30:59;;;;;;;20.27;11.35;;;;;;;4.19;93.03;98858.13;4984221;28;20069;-70
2020/12/11 11:33:24;;;;;;;21.30;11.85;;;;;;;4.16;92.80;98847.72;4986427;28;20046;-70
2020/12/11 11:35:50;;;;;;;23.17;12.65;;;;;;;4.19;92.90;98849.31;4988117;28;20031;-71
2020/12/11 11:38:17;;;;;;;21.73;11.85;;;;;;;4.20;93.53;98848.34;4987342;28;20459;-70
2020/12/11 11:40:44;;;;;;;23.80;11.90;;;;;;;4.28;92.51;98843.38;4986941;28;20042;-69
2020/12/11 11:43:09;;;;;;;24.58;11.45;;;;;;;4.32;92.43;98848.34;4985874;28;20050;-70
2020/12/11 11:45:36;;;;;;;19.88;11.65;;;;;;;4.35;93.11;98842.00;4983413;28;20046;-74
2020/12/11 11:48:07;;;;;;;23.02;12.77;;;;;;;4.41;92.63;98841.56;5001776;28;20026;-72
2020/12/11 11:50:40;;;;;;;22.02;11.48;;;;;;;4.56;92.50;98843.19;4983507;28;20027;-70
2020/12/11 11:53:27;;;;;;;21.48;11.30;;;;;;;4.57;91.61;98831.56;4984157;28;20121;-70
2020/12/11 11:55:51;;;;;;;18.98;11.45;;;;;;;4.60;91.70;98825.22;4983873;28;20050;-73
2020/12/11 11:58:17;;;;;;;18.42;10.63;;;;;;;4.62;91.24;98829.47;4992994;28;20030;-71